หน้าหลัก
METAR-TAF:

METAR-TAF

ท่าอากาศยาน :

Kristianstad, สวีเดน

ละติจูด: 55-55N, ลองจิจูด: 014-05E, ความสูง: 23 ม.

การสังเกตสภาพอากาศปัจจุบัน

รายงานได้ทำขึ้นเมื่อ 41 นาทีที่แล้ว ณ เวลา 23:20 UTC
ลม 5 นอตจากตะวันออก
อุณหภูมิ 17°C
ความชื้น 100%
ความกดอากาศ 1011 hPa
ทัศนวิสัย 10 กม. หรือมากกว่า

METAR: ESMK 122320Z AUTO 08005KT 9999 BKN098/// 17/17 Q1011

เวลา: 02:01 (00:01 UTC)

การพยากรณ์

รายงานได้ทำขึ้นเมื่อ 12 ชั่วโมงและ 49 นาทีที่แล้ว ณ เวลา 11:12 UTC
การพยากรณ์มีผลตั้งแต่วันที่ 12 ณ เวลา 12 UTC จนถึงวันที่ 12 ณ เวลา 14 UTC
ลม 8 นอตจากตะวันออก/ตะวันออกเฉียงใต้
ทัศนวิสัย 10 กม. หรือมากกว่า
มีเมฆกระจายเป็นบางส่วนที่ความสูง 3000 ฟุต

TAF: ESMK 121112Z 1212/1214 12008KT 9999 SCT030

สังเกตการณ์สภาพอากาศและพยากรณ์อากาศของสนามบินมากกว่า 4000 แห่ง (รายงาน METAR และ TAF).

สถานีที่ดูได้จะแสดงไว้ด้วยจุดสีเหลืองและสีแดงบนแผนที่.

เลื่อนเมาส์ไปเหนือจุดเพื่อดูชื่อสถานี.

แล้วคลิกเพื่อดูสังเกตการณ์และการพยากรณ์สภาพอากาศ.

ในการเปลี่ยนแผนที่: คลิกที่ปุ่มสีเขียวที่มีกากบาทสีดำเพื่อซูมเข้า; ที่ปุ่มสีเขียวที่มีขีดเพื่อซูมออก; หรือที่ลูกศรสีเขียวเพื่อไปยังแผนที่ที่อยู่ติดกัน.


METAR-TAF: